createdAt,value
2018-05-27T00:00:03.322Z,11.70
2018-05-27T00:02:29.666Z,11.60
2018-05-27T00:04:56.233Z,11.60
2018-05-27T00:07:22.601Z,11.70
2018-05-27T00:09:49.821Z,11.60
2018-05-27T00:12:16.463Z,11.60
2018-05-27T00:14:42.959Z,11.60
2018-05-27T00:17:09.623Z,11.60
2018-05-27T00:19:36.182Z,11.60
2018-05-27T00:22:02.898Z,11.60
2018-05-27T00:24:29.311Z,11.50
2018-05-27T00:26:56.064Z,11.40
2018-05-27T00:29:22.555Z,11.40
2018-05-27T00:31:48.953Z,11.40
2018-05-27T00:34:16.017Z,11.30
2018-05-27T00:36:43.185Z,11.30
2018-05-27T00:39:09.759Z,11.30
2018-05-27T00:41:36.239Z,11.30
2018-05-27T00:44:03.342Z,11.20
2018-05-27T00:46:29.708Z,11.10
2018-05-27T00:48:56.991Z,11.10
2018-05-27T00:51:23.476Z,11.10
2018-05-27T00:53:58.988Z,11.10
2018-05-27T00:56:25.410Z,11.10
2018-05-27T00:58:51.752Z,11.10
2018-05-27T01:01:18.303Z,11.00
2018-05-27T01:03:44.725Z,11.00
2018-05-27T01:06:11.170Z,11.00
2018-05-27T01:08:37.615Z,11.00
2018-05-27T01:11:04.274Z,11.00
2018-05-27T01:13:31.586Z,11.10
2018-05-27T01:15:58.070Z,11.10
2018-05-27T01:18:24.529Z,11.10
2018-05-27T01:20:50.927Z,11.10
2018-05-27T01:23:19.198Z,11.20
2018-05-27T01:25:46.290Z,11.20
2018-05-27T01:28:12.780Z,11.10
2018-05-27T01:30:39.929Z,11.10
2018-05-27T01:33:07.142Z,11.10
2018-05-27T01:35:33.606Z,11.10
2018-05-27T01:38:00.935Z,11.10
2018-05-27T01:40:27.476Z,11.10
2018-05-27T01:42:53.890Z,11.00
2018-05-27T01:45:20.382Z,11.00
2018-05-27T01:47:46.807Z,11.00
2018-05-27T01:50:13.264Z,10.90
2018-05-27T01:52:39.727Z,10.90
2018-05-27T01:55:06.145Z,10.80
2018-05-27T01:57:32.584Z,10.80
2018-05-27T01:59:58.940Z,10.80
2018-05-27T02:02:26.371Z,10.70
2018-05-27T02:04:52.909Z,10.60
2018-05-27T02:07:19.313Z,10.60
2018-05-27T02:09:45.759Z,10.60
2018-05-27T02:12:12.160Z,10.50
2018-05-27T02:14:38.597Z,10.50
2018-05-27T02:17:05.021Z,10.40
2018-05-27T02:19:31.495Z,10.40
2018-05-27T02:21:57.878Z,10.40
2018-05-27T02:24:25.185Z,10.40
2018-05-27T02:26:52.332Z,10.30
2018-05-27T02:29:18.766Z,10.30
2018-05-27T02:31:45.208Z,10.30
2018-05-27T02:34:11.620Z,10.40
2018-05-27T02:36:38.012Z,10.40
2018-05-27T02:39:05.624Z,10.40
2018-05-27T02:41:32.055Z,10.50
2018-05-27T02:44:02.006Z,10.60
2018-05-27T02:46:28.364Z,10.60
2018-05-27T02:48:54.828Z,10.70
2018-05-27T02:51:21.228Z,10.70
2018-05-27T02:53:47.612Z,10.70
2018-05-27T02:56:14.871Z,10.70
2018-05-27T02:58:42.034Z,10.70
2018-05-27T03:01:08.396Z,10.70
2018-05-27T03:03:35.010Z,10.70
2018-05-27T03:06:01.425Z,10.70
2018-05-27T03:08:28.493Z,10.60
2018-05-27T03:10:54.889Z,10.50
2018-05-27T03:13:25.259Z,10.50
2018-05-27T03:15:51.756Z,10.40
2018-05-27T03:18:19.033Z,10.30
2018-05-27T03:20:45.562Z,10.30
2018-05-27T03:23:11.960Z,10.30
2018-05-27T03:25:38.317Z,10.30
2018-05-27T03:28:05.045Z,10.20
2018-05-27T03:30:32.217Z,10.20
2018-05-27T03:32:58.904Z,10.20
2018-05-27T03:35:25.433Z,10.30
2018-05-27T03:37:52.024Z,10.30
2018-05-27T03:40:18.694Z,10.30
2018-05-27T03:42:45.270Z,10.20
2018-05-27T03:45:12.354Z,10.30
2018-05-27T03:47:38.757Z,10.20
2018-05-27T03:50:05.847Z,10.40
2018-05-27T03:52:32.303Z,10.30
2018-05-27T03:54:58.762Z,10.40
2018-05-27T03:57:25.928Z,10.40
2018-05-27T03:59:52.359Z,10.40
2018-05-27T04:02:18.794Z,10.50
2018-05-27T04:04:58.051Z,10.50
2018-05-27T04:07:36.753Z,10.60
2018-05-27T04:10:03.232Z,10.70
2018-05-27T04:12:29.654Z,10.80
2018-05-27T04:14:56.211Z,10.80
2018-05-27T04:17:22.643Z,10.90
2018-05-27T04:19:49.227Z,11.00
2018-05-27T04:22:15.584Z,11.10
2018-05-27T04:24:42.063Z,11.10
2018-05-27T04:27:09.191Z,11.20
2018-05-27T04:29:35.522Z,11.20
2018-05-27T04:32:02.056Z,11.40
2018-05-27T04:34:28.534Z,11.40
2018-05-27T04:36:54.942Z,11.50
2018-05-27T04:39:22.225Z,11.80
2018-05-27T04:41:48.741Z,11.80
2018-05-27T04:44:15.059Z,11.90
2018-05-27T04:46:42.572Z,12.10
2018-05-27T04:49:08.929Z,12.10
2018-05-27T04:51:35.382Z,12.20
2018-05-27T04:54:01.845Z,12.30
2018-05-27T04:56:28.219Z,12.30
2018-05-27T04:58:54.861Z,12.40
2018-05-27T05:01:21.374Z,12.50
2018-05-27T05:03:47.768Z,12.50
2018-05-27T05:06:14.239Z,12.70
2018-05-27T05:08:40.664Z,12.80
2018-05-27T05:11:07.165Z,12.90
2018-05-27T05:13:33.534Z,13.00
2018-05-27T05:16:00.065Z,13.10
2018-05-27T05:18:26.474Z,13.40
2018-05-27T05:20:53.011Z,13.60
2018-05-27T05:23:19.715Z,13.80
2018-05-27T05:25:46.860Z,14.10
2018-05-27T05:28:13.932Z,14.20
2018-05-27T05:30:40.401Z,14.20
2018-05-27T05:33:06.853Z,14.20
2018-05-27T05:35:33.339Z,14.30
2018-05-27T05:37:59.900Z,14.30
2018-05-27T05:40:26.455Z,14.40
2018-05-27T05:42:52.875Z,14.50
2018-05-27T05:45:19.326Z,14.60
2018-05-27T05:47:45.946Z,14.70
2018-05-27T05:50:12.408Z,15.10
2018-05-27T05:52:39.740Z,16.50
2018-05-27T05:55:06.464Z,16.40
2018-05-27T05:57:32.898Z,17.50
2018-05-27T05:59:59.646Z,18.10
2018-05-27T06:02:26.073Z,18.60
2018-05-27T06:04:52.569Z,19.10
2018-05-27T06:07:19.233Z,19.40
2018-05-27T06:09:45.586Z,19.80
2018-05-27T06:12:12.204Z,20.20
2018-05-27T06:14:39.118Z,20.40
2018-05-27T06:17:05.683Z,20.70
2018-05-27T06:19:32.160Z,21.10
2018-05-27T06:21:58.746Z,21.20
2018-05-27T06:24:25.075Z,21.30
2018-05-27T06:26:51.616Z,21.20
2018-05-27T06:29:17.969Z,21.10
2018-05-27T06:31:45.115Z,20.90
2018-05-27T06:34:11.582Z,20.90
2018-05-27T06:36:38.110Z,20.80
2018-05-27T06:39:05.622Z,20.50
2018-05-27T06:41:32.240Z,20.50
2018-05-27T06:43:58.711Z,20.60
2018-05-27T06:46:25.185Z,20.90
2018-05-27T06:48:51.858Z,20.80
2018-05-27T06:51:18.285Z,20.60
2018-05-27T06:53:44.871Z,20.40
2018-05-27T06:56:11.418Z,20.20
2018-05-27T06:58:38.005Z,20.00
2018-05-27T07:01:04.734Z,19.80
2018-05-27T07:03:31.599Z,19.80
2018-05-27T07:05:58.065Z,19.90
2018-05-27T07:08:25.057Z,20.40
2018-05-27T07:10:51.452Z,20.70
2018-05-27T07:13:18.721Z,20.70
2018-05-27T07:15:45.851Z,20.60
2018-05-27T07:18:12.222Z,20.40
2018-05-27T07:20:38.789Z,20.30
2018-05-27T07:23:05.974Z,20.90
2018-05-27T07:25:32.434Z,20.90
2018-05-27T07:27:58.902Z,21.30
2018-05-27T07:30:26.650Z,21.50
2018-05-27T07:32:53.018Z,21.40
2018-05-27T07:35:19.442Z,21.80
2018-05-27T07:37:46.867Z,22.60
2018-05-27T07:40:13.611Z,22.60
2018-05-27T07:42:40.115Z,23.00
2018-05-27T07:45:06.763Z,23.00
2018-05-27T07:47:33.739Z,23.00
2018-05-27T07:50:01.161Z,22.70
2018-05-27T07:52:27.798Z,22.70
2018-05-27T07:54:54.158Z,22.60
2018-05-27T07:57:21.381Z,22.30
2018-05-27T07:59:47.963Z,22.30
2018-05-27T08:02:14.455Z,22.20
2018-05-27T08:04:41.390Z,21.90
2018-05-27T08:07:07.967Z,21.70
2018-05-27T08:09:34.560Z,21.60
2018-05-27T08:12:01.249Z,21.70
2018-05-27T08:14:28.962Z,22.00
2018-05-27T08:16:55.643Z,21.90
2018-05-27T08:19:22.907Z,22.40
2018-05-27T08:21:49.354Z,22.40
2018-05-27T08:24:15.730Z,22.70
2018-05-27T08:26:42.275Z,22.80
2018-05-27T08:29:08.790Z,23.10
2018-05-27T08:31:36.658Z,23.30
2018-05-27T08:34:04.014Z,23.40
2018-05-27T08:36:31.266Z,23.50
2018-05-27T08:38:57.779Z,23.50
2018-05-27T08:41:24.184Z,23.30
2018-05-27T08:43:50.572Z,23.20
2018-05-27T08:46:17.737Z,23.10
2018-05-27T08:48:45.014Z,23.30
2018-05-27T08:51:11.488Z,23.20
2018-05-27T08:53:38.235Z,23.40
2018-05-27T08:56:04.771Z,23.40
2018-05-27T08:58:31.342Z,23.60
2018-05-27T09:00:57.790Z,23.70
2018-05-27T09:03:25.925Z,23.80
2018-05-27T09:05:52.341Z,23.70
2018-05-27T09:08:18.805Z,23.40
2018-05-27T09:10:46.023Z,23.80
2018-05-27T09:13:12.692Z,23.70
2018-05-27T09:15:39.986Z,23.80
2018-05-27T09:18:06.490Z,23.80
2018-05-27T09:20:33.864Z,24.00
2018-05-27T09:23:00.303Z,24.00
2018-05-27T09:25:26.808Z,24.00
2018-05-27T09:27:54.019Z,24.20
2018-05-27T09:30:20.713Z,24.20
2018-05-27T09:32:47.189Z,24.20
2018-05-27T09:35:14.880Z,24.10
2018-05-27T09:37:41.326Z,23.90
2018-05-27T09:40:07.840Z,23.80
2018-05-27T09:42:34.262Z,23.60
2018-05-27T09:45:00.648Z,23.20
2018-05-27T09:47:27.503Z,22.90
2018-05-27T09:49:53.954Z,22.80
2018-05-27T09:52:20.375Z,22.60
2018-05-27T09:54:46.751Z,22.40
2018-05-27T09:57:14.070Z,22.00
2018-05-27T09:59:40.473Z,22.00
2018-05-27T10:02:07.150Z,21.90
2018-05-27T10:04:33.614Z,21.80
2018-05-27T10:07:00.826Z,21.70
2018-05-27T10:09:27.402Z,21.60
2018-05-27T10:11:54.738Z,21.30
2018-05-27T10:14:21.257Z,21.30
2018-05-27T10:16:47.659Z,21.20
2018-05-27T10:19:14.203Z,21.00
2018-05-27T10:21:40.741Z,20.80
2018-05-27T10:24:07.248Z,20.50
2018-05-27T10:26:34.475Z,20.30
2018-05-27T10:29:01.012Z,20.10
2018-05-27T10:31:28.210Z,19.90
2018-05-27T10:33:54.627Z,19.90
2018-05-27T10:36:21.013Z,19.90
2018-05-27T10:38:48.171Z,19.70
2018-05-27T10:41:15.692Z,19.40
2018-05-27T10:43:42.020Z,19.40
2018-05-27T10:46:08.519Z,19.20
2018-05-27T10:48:35.647Z,18.60
2018-05-27T10:51:02.108Z,18.60
2018-05-27T10:53:28.617Z,18.50
2018-05-27T10:55:55.937Z,17.90
2018-05-27T10:58:23.149Z,17.70
2018-05-27T11:00:49.861Z,17.70
2018-05-27T11:03:16.224Z,17.40
2018-05-27T11:05:42.796Z,17.30
2018-05-27T11:08:09.158Z,17.20
2018-05-27T11:10:36.663Z,17.10
2018-05-27T11:13:03.935Z,17.00
2018-05-27T11:15:30.487Z,17.00
2018-05-27T11:17:57.784Z,17.00
2018-05-27T11:20:24.393Z,17.00
2018-05-27T11:22:51.046Z,16.90
2018-05-27T11:25:17.485Z,16.90
2018-05-27T11:27:44.013Z,17.00
2018-05-27T11:30:10.506Z,17.10
2018-05-27T11:32:37.015Z,17.30
2018-05-27T11:35:03.406Z,17.50
2018-05-27T11:37:29.849Z,17.90
2018-05-27T11:39:56.316Z,18.10
2018-05-27T11:42:22.775Z,18.30
2018-05-27T11:44:50.100Z,19.00
2018-05-27T11:47:16.456Z,19.00
2018-05-27T11:49:42.770Z,19.30
2018-05-27T11:52:09.309Z,19.70
2018-05-27T11:54:35.859Z,20.00
2018-05-27T11:57:03.108Z,20.50
2018-05-27T11:59:29.527Z,20.50
2018-05-27T12:01:56.191Z,20.70
2018-05-27T12:04:22.526Z,20.90
2018-05-27T12:06:50.544Z,21.30
2018-05-27T12:09:17.129Z,21.30
2018-05-27T12:11:43.746Z,21.50
2018-05-27T12:14:10.679Z,21.60
2018-05-27T12:16:37.099Z,21.70
2018-05-27T12:19:03.561Z,21.90
2018-05-27T12:21:30.724Z,21.90
2018-05-27T12:23:57.432Z,21.80
2018-05-27T12:26:23.812Z,22.00
2018-05-27T12:28:50.276Z,22.10
2018-05-27T12:31:16.609Z,22.20
2018-05-27T12:33:42.997Z,22.40
2018-05-27T12:36:09.450Z,22.50
2018-05-27T12:38:35.829Z,22.50
2018-05-27T12:41:03.166Z,22.50
2018-05-27T12:43:31.129Z,22.50
2018-05-27T12:45:57.540Z,22.60
2018-05-27T12:48:23.975Z,22.80
2018-05-27T12:50:50.387Z,22.80
2018-05-27T12:53:16.887Z,23.00
2018-05-27T12:55:44.016Z,23.20
2018-05-27T12:58:10.517Z,23.10
2018-05-27T13:00:37.042Z,23.30
2018-05-27T13:03:03.539Z,23.50
2018-05-27T13:05:30.862Z,23.70
2018-05-27T13:07:57.296Z,23.60
2018-05-27T13:10:23.641Z,23.80
2018-05-27T13:12:50.007Z,23.90
2018-05-27T13:15:16.567Z,23.90
2018-05-27T13:17:43.035Z,23.90
2018-05-27T13:20:09.390Z,23.70
2018-05-27T13:22:36.549Z,23.70
2018-05-27T13:25:03.116Z,23.60
2018-05-27T13:27:29.554Z,23.70
2018-05-27T13:29:56.390Z,23.60
2018-05-27T13:32:22.808Z,23.60
2018-05-27T13:34:49.201Z,23.80
2018-05-27T13:37:15.641Z,23.90
2018-05-27T13:39:42.128Z,24.00
2018-05-27T13:42:08.721Z,24.00
2018-05-27T13:44:35.827Z,24.00
2018-05-27T13:47:02.152Z,24.00
2018-05-27T13:49:28.554Z,24.00
2018-05-27T13:51:55.004Z,24.00
2018-05-27T13:54:21.341Z,24.10
2018-05-27T13:56:47.824Z,24.10
2018-05-27T13:59:14.958Z,24.20
2018-05-27T14:01:41.559Z,24.20
2018-05-27T14:04:08.024Z,24.10
2018-05-27T14:06:36.088Z,24.00
2018-05-27T14:09:02.535Z,24.00
2018-05-27T14:11:29.697Z,24.10
2018-05-27T14:13:58.068Z,24.10
2018-05-27T14:16:25.297Z,24.20
2018-05-27T14:18:52.675Z,24.20
2018-05-27T14:21:19.963Z,24.10
2018-05-27T14:23:47.502Z,24.00
2018-05-27T14:26:14.612Z,23.70
2018-05-27T14:28:40.956Z,23.70
2018-05-27T14:31:08.009Z,23.50
2018-05-27T14:33:34.509Z,23.50
2018-05-27T14:36:00.886Z,23.50
2018-05-27T14:38:28.071Z,23.70
2018-05-27T14:40:54.520Z,23.70
2018-05-27T14:43:21.002Z,23.90
2018-05-27T14:45:48.123Z,24.10
2018-05-27T14:48:14.606Z,24.10
2018-05-27T14:50:41.104Z,24.00
2018-05-27T14:53:08.320Z,23.90
2018-05-27T14:55:34.861Z,23.90
2018-05-27T14:58:01.318Z,23.90
2018-05-27T15:00:28.500Z,23.70
2018-05-27T15:02:54.937Z,23.70
2018-05-27T15:05:21.343Z,23.60
2018-05-27T15:07:48.531Z,23.30
2018-05-27T15:10:15.763Z,23.30
2018-05-27T15:12:43.086Z,23.20
2018-05-27T15:15:09.548Z,23.10
2018-05-27T15:17:36.772Z,23.10
2018-05-27T15:20:03.232Z,23.10
2018-05-27T15:22:29.779Z,23.00
2018-05-27T15:24:56.234Z,23.00
2018-05-27T15:27:22.692Z,22.80
2018-05-27T15:29:49.149Z,22.70
2018-05-27T15:32:16.523Z,22.60
2018-05-27T15:34:43.654Z,22.50
2018-05-27T15:37:10.820Z,22.50
2018-05-27T15:39:37.245Z,22.50
2018-05-27T15:42:04.457Z,22.50
2018-05-27T15:44:30.941Z,22.50
2018-05-27T15:46:57.442Z,22.50
2018-05-27T15:49:24.586Z,22.60
2018-05-27T15:51:51.176Z,22.60
2018-05-27T15:54:17.523Z,22.70
2018-05-27T15:56:43.872Z,22.80
2018-05-27T15:59:10.348Z,22.80
2018-05-27T16:01:38.378Z,22.80
2018-05-27T16:04:05.112Z,22.80
2018-05-27T16:06:31.535Z,22.80
2018-05-27T16:08:58.511Z,22.70
2018-05-27T16:11:25.701Z,22.60
2018-05-27T16:13:52.361Z,22.60
2018-05-27T16:16:18.816Z,22.50
2018-05-27T16:18:45.319Z,22.40
2018-05-27T16:21:12.054Z,22.30
2018-05-27T16:23:39.598Z,22.30
2018-05-27T16:26:06.085Z,22.20
2018-05-27T16:28:32.686Z,22.10
2018-05-27T16:30:59.247Z,22.10
2018-05-27T16:33:25.842Z,22.00
2018-05-27T16:35:52.212Z,21.90
2018-05-27T16:38:18.960Z,21.80
2018-05-27T16:40:45.531Z,21.60
2018-05-27T16:43:12.734Z,21.40
2018-05-27T16:45:39.189Z,21.40
2018-05-27T16:48:05.627Z,21.30
2018-05-27T16:50:32.083Z,21.10
2018-05-27T16:52:59.847Z,20.90
2018-05-27T16:55:26.331Z,21.00
2018-05-27T16:57:52.825Z,20.80
2018-05-27T17:00:19.306Z,20.70
2018-05-27T17:02:45.688Z,20.60
2018-05-27T17:05:12.239Z,20.50
2018-05-27T17:07:39.025Z,20.50
2018-05-27T17:10:05.510Z,20.40
2018-05-27T17:12:32.038Z,20.30
2018-05-27T17:14:59.956Z,20.10
2018-05-27T17:17:26.413Z,20.10
2018-05-27T17:19:53.655Z,19.90
2018-05-27T17:22:20.270Z,19.90
2018-05-27T17:24:46.747Z,19.80
2018-05-27T17:27:13.890Z,19.70
2018-05-27T17:29:41.076Z,19.60
2018-05-27T17:32:08.351Z,19.60
2018-05-27T17:34:34.846Z,19.50
2018-05-27T17:37:01.261Z,19.50
2018-05-27T17:39:28.448Z,19.30
2018-05-27T17:41:55.009Z,19.20
2018-05-27T17:44:21.546Z,19.20
2018-05-27T17:46:47.943Z,19.10
2018-05-27T17:49:14.516Z,19.10
2018-05-27T17:51:42.115Z,19.00
2018-05-27T17:54:08.539Z,18.90
2018-05-27T17:56:36.471Z,18.90
2018-05-27T17:59:03.204Z,18.80
2018-05-27T18:01:29.805Z,18.80
2018-05-27T18:03:56.175Z,18.80
2018-05-27T18:06:22.748Z,18.70
2018-05-27T18:08:50.001Z,18.50
2018-05-27T18:11:17.124Z,18.50
2018-05-27T18:13:44.983Z,18.50
2018-05-27T18:16:11.968Z,18.50
2018-05-27T18:18:38.452Z,18.50
2018-05-27T18:21:04.953Z,18.40
2018-05-27T18:23:31.473Z,18.40
2018-05-27T18:25:58.131Z,18.30
2018-05-27T18:28:24.522Z,18.30
2018-05-27T18:30:52.049Z,18.20
2018-05-27T18:33:19.098Z,18.20
2018-05-27T18:35:45.594Z,18.20
2018-05-27T18:38:12.012Z,18.10
2018-05-27T18:40:39.117Z,18.10
2018-05-27T18:43:05.752Z,18.00
2018-05-27T18:45:32.195Z,18.00
2018-05-27T18:47:58.620Z,18.00
2018-05-27T18:50:25.063Z,17.90
2018-05-27T18:52:51.783Z,17.90
2018-05-27T18:55:18.167Z,17.90
2018-05-27T18:57:44.874Z,17.80
2018-05-27T19:00:11.649Z,17.80
2018-05-27T19:02:38.378Z,17.70
2018-05-27T19:05:05.543Z,17.60
2018-05-27T19:07:32.906Z,17.60
2018-05-27T19:09:59.497Z,17.60
2018-05-27T19:12:26.175Z,17.60
2018-05-27T19:14:53.499Z,17.50
2018-05-27T19:17:20.703Z,17.40
2018-05-27T19:19:47.301Z,17.40
2018-05-27T19:22:13.784Z,17.40
2018-05-27T19:24:40.273Z,17.40
2018-05-27T19:27:07.066Z,17.40
2018-05-27T19:29:33.472Z,17.40
2018-05-27T19:31:59.968Z,17.40
2018-05-27T19:34:27.208Z,17.30
2018-05-27T19:36:54.480Z,17.30
2018-05-27T19:39:20.965Z,17.30
2018-05-27T19:41:47.543Z,17.30
2018-05-27T19:44:14.004Z,17.20
2018-05-27T19:46:40.488Z,17.20
2018-05-27T19:49:07.922Z,17.10
2018-05-27T19:51:35.121Z,17.10
2018-05-27T19:54:01.479Z,17.00
2018-05-27T19:56:27.820Z,17.00
2018-05-27T19:58:54.312Z,17.00
2018-05-27T20:01:20.749Z,16.90
2018-05-27T20:03:49.185Z,16.90
2018-05-27T20:06:15.529Z,16.90
2018-05-27T20:08:41.889Z,16.90
2018-05-27T20:11:08.343Z,16.80
2018-05-27T20:13:34.712Z,16.80
2018-05-27T20:16:01.168Z,16.70
2018-05-27T20:18:28.377Z,16.60
2018-05-27T20:20:54.810Z,16.60
2018-05-27T20:23:21.214Z,16.60
2018-05-27T20:25:47.612Z,16.50
2018-05-27T20:28:14.976Z,16.50
2018-05-27T20:30:42.127Z,16.40
2018-05-27T20:33:10.087Z,16.30
2018-05-27T20:35:37.359Z,16.30
2018-05-27T20:38:04.509Z,16.20
2018-05-27T20:40:30.897Z,16.20
2018-05-27T20:42:57.244Z,16.20
2018-05-27T20:45:24.355Z,16.20
2018-05-27T20:47:50.760Z,16.20
2018-05-27T20:50:17.167Z,16.10
2018-05-27T20:52:44.422Z,16.00
2018-05-27T20:55:10.745Z,16.00
2018-05-27T20:57:37.853Z,15.90
2018-05-27T21:00:04.367Z,15.90
2018-05-27T21:02:30.790Z,15.90
2018-05-27T21:04:57.129Z,15.90
2018-05-27T21:07:23.511Z,15.90
2018-05-27T21:09:50.705Z,15.70
2018-05-27T21:12:17.274Z,15.70
2018-05-27T21:14:45.387Z,15.60
2018-05-27T21:17:11.734Z,15.60
2018-05-27T21:19:38.164Z,15.60
2018-05-27T21:22:04.596Z,15.50
2018-05-27T21:24:31.138Z,15.50
2018-05-27T21:26:57.652Z,15.50
2018-05-27T21:29:24.271Z,15.50
2018-05-27T21:31:51.429Z,15.30
2018-05-27T21:34:17.853Z,15.30
2018-05-27T21:36:45.127Z,15.20
2018-05-27T21:39:11.507Z,15.20
2018-05-27T21:41:38.043Z,15.10
2018-05-27T21:44:05.663Z,15.10
2018-05-27T21:46:32.134Z,15.00
2018-05-27T21:48:58.569Z,15.10
2018-05-27T21:51:25.028Z,15.10
2018-05-27T21:53:52.343Z,14.90
2018-05-27T21:56:18.828Z,14.90
2018-05-27T21:58:45.167Z,14.80
2018-05-27T22:01:12.278Z,14.70
2018-05-27T22:03:38.613Z,14.70
2018-05-27T22:06:05.026Z,14.70
2018-05-27T22:08:31.503Z,14.60
2018-05-27T22:10:57.820Z,14.60
2018-05-27T22:13:28.372Z,14.50
2018-05-27T22:15:55.658Z,14.50
2018-05-27T22:18:21.986Z,14.40
2018-05-27T22:20:48.427Z,14.40
2018-05-27T22:23:14.774Z,14.40
2018-05-27T22:25:41.209Z,14.30
2018-05-27T22:28:09.121Z,14.10
2018-05-27T22:30:35.551Z,14.10
2018-05-27T22:33:01.923Z,14.10
2018-05-27T22:35:28.392Z,14.10
2018-05-27T22:37:55.487Z,14.00
2018-05-27T22:40:21.989Z,14.00
2018-05-27T22:42:48.528Z,14.00
2018-05-27T22:45:14.918Z,13.80
2018-05-27T22:47:42.080Z,13.70
2018-05-27T22:50:09.335Z,13.70
2018-05-27T22:52:36.521Z,13.70
2018-05-27T22:55:02.879Z,13.60
2018-05-27T22:57:29.197Z,13.60
2018-05-27T22:59:55.646Z,13.60
2018-05-27T23:02:21.970Z,13.60
2018-05-27T23:04:48.351Z,13.60
2018-05-27T23:07:15.471Z,13.60
2018-05-27T23:09:41.881Z,13.60
2018-05-27T23:12:08.325Z,13.50
2018-05-27T23:14:36.682Z,13.60
2018-05-27T23:17:03.017Z,13.50
2018-05-27T23:19:29.431Z,13.50
2018-05-27T23:21:55.828Z,13.40
2018-05-27T23:24:22.214Z,13.40
2018-05-27T23:26:48.577Z,13.30
2018-05-27T23:29:15.670Z,13.40
2018-05-27T23:31:42.125Z,13.30
2018-05-27T23:34:08.603Z,13.40
2018-05-27T23:36:35.907Z,13.30
2018-05-27T23:39:02.431Z,13.30
2018-05-27T23:41:28.813Z,13.20
2018-05-27T23:43:55.928Z,13.30
2018-05-27T23:46:22.305Z,13.20
2018-05-27T23:48:49.410Z,13.20
2018-05-27T23:51:16.454Z,13.20
2018-05-27T23:53:42.805Z,13.20
2018-05-27T23:56:10.607Z,13.10
2018-05-27T23:58:36.984Z,13.10
